»·PEaware :: N700EN KSAN-KLAS

N700EN :: KSAN-KLAS

FLIGHT INFORMATION

Flight Status: Arrived
Operator: Privately registered:
United States
More flights under this callsign
Pilot: James L. (28459)
Aircraft: SOCATA TBM-900
(TBM9)
More flights by this aircraft type
Origin: KSAN San Diego Intl-Lindbergh
United States
Destination: KLAS McCarran Intl
United States
More flights between these airports :: More routes between these airports
Route: +PADRZ2 CHKNN SEBBY DAG CRESO4
File this flight plan on PilotEdge
Remarks:
Altitude:
(Current/Filed)
23,000ft
Speed:
(Current/Filed)
310kts
Departed: 19-Mar-20 01:59 PM
Arrived: 19-Mar-20 03:17 PM
Distance/Time
Traveled:
225nm/1:18
Distance/Time
To Go:
Arrived

Flight Plot

Page will automatically refresh every two minutes.

Flight plan parsing failed; only flown route is shown


Map Options




Map Legend


Flown Route
Filed Route
Departure Airport
Arrival Airport
Navaid (VOR, NDB)
Fix

Horizontal Profiles

Position Reports

Time Latitude Longitude Heading Altitude Ground
Speed
19-Mar-20 13:33 32.732925 -117.180099 290 18ft 0kts
19-Mar-20 13:34 32.732925 -117.180099 290 18ft 0kts
19-Mar-20 13:35 32.732925 -117.180099 290 18ft 0kts
19-Mar-20 13:36 32.732925 -117.180099 290 18ft 0kts
19-Mar-20 13:37 32.732925 -117.180099 290 18ft 0kts
19-Mar-20 13:38 32.732925 -117.180099 290 18ft 0kts
19-Mar-20 13:39 32.732925 -117.180099 290 18ft 0kts
19-Mar-20 13:40 32.732925 -117.180099 290 18ft 0kts
19-Mar-20 13:41 32.732925 -117.180099 290 18ft 0kts
19-Mar-20 13:42 32.732925 -117.180099 290 18ft 0kts
19-Mar-20 13:43 32.732925 -117.180099 290 18ft 0kts
19-Mar-20 13:44 32.732925 -117.180099 290 18ft 0kts
19-Mar-20 13:45 32.732925 -117.180099 290 18ft 0kts
19-Mar-20 13:46 32.732925 -117.180099 290 18ft 0kts
19-Mar-20 13:47 32.732925 -117.180099 290 18ft 0kts
19-Mar-20 13:48 32.732925 -117.180100 290 18ft 0kts
19-Mar-20 13:49 32.732925 -117.180100 290 18ft 0kts
19-Mar-20 13:50 32.732925 -117.180100 290 18ft 0kts
19-Mar-20 13:51 32.731917 -117.178153 106 19ft 19kts
19-Mar-20 13:52 32.731009 -117.175566 144 21ft 0kts
19-Mar-20 13:53 32.731009 -117.175566 144 21ft 0kts
19-Mar-20 13:54 32.731009 -117.175566 144 21ft 0kts
19-Mar-20 13:55 32.731009 -117.175566 144 21ft 0kts
19-Mar-20 13:56 32.731009 -117.175566 144 21ft 0kts
19-Mar-20 13:57 32.730171 -117.176302 288 19ft 34kts
19-Mar-20 13:58 32.741424 -117.207854 297 1299ft 131kts
19-Mar-20 13:59 32.763840 -117.250521 298 3488ft 152kts
19-Mar-20 14:00 32.784933 -117.290901 297 5876ft 149kts
19-Mar-20 14:01 32.804406 -117.325818 303 7742ft 153kts
19-Mar-20 14:02 32.826449 -117.360010 303 9464ft 156kts
19-Mar-20 14:03 32.848076 -117.393542 303 11310ft 161kts
19-Mar-20 14:04 32.874965 -117.435248 303 13678ft 162kts
19-Mar-20 14:05 32.907814 -117.486262 303 15108ft 188kts
19-Mar-20 14:06 32.937694 -117.532789 302 17664ft 169kts
19-Mar-20 14:07 32.966577 -117.577809 302 19779ft 173kts
19-Mar-20 14:08 32.995050 -117.622247 301 21578ft 176kts
19-Mar-20 14:09 33.024680 -117.668568 300 23200ft 194kts
19-Mar-20 14:10 33.062768 -117.727963 304 23199ft 259kts
19-Mar-20 14:11 33.119411 -117.786080 312 23190ft 284kts
19-Mar-20 14:12 33.180106 -117.847912 312 23194ft 290kts
19-Mar-20 14:13 33.236489 -117.903348 312 25084ft 244kts
19-Mar-20 14:14 33.286295 -117.951982 311 27084ft 222kts
19-Mar-20 14:15 33.337901 -118.002577 312 27188ft 266kts
19-Mar-20 14:16 33.396193 -118.059614 313 27175ft 284kts
19-Mar-20 14:17 33.456771 -118.119017 313 27173ft 292kts
19-Mar-20 14:18 33.518286 -118.179461 313 27170ft 295kts
19-Mar-20 14:19 33.580947 -118.238500 324 27157ft 302kts
19-Mar-20 14:20 33.656187 -118.280355 327 27171ft 304kts
19-Mar-20 14:21 33.734947 -118.310260 354 27163ft 325kts
19-Mar-20 14:22 33.815212 -118.258699 47 27164ft 358kts
19-Mar-20 14:23 33.862886 -118.161549 51 27168ft 359kts
19-Mar-20 14:24 33.915423 -118.072488 50 27157ft 360kts
19-Mar-20 14:25 33.969552 -117.980954 50 27163ft 360kts
19-Mar-20 14:26 34.023166 -117.890065 50 27173ft 360kts
19-Mar-20 14:27 34.075340 -117.801392 50 27182ft 360kts
19-Mar-20 14:28 34.140090 -117.708852 43 27174ft 358kts
19-Mar-20 14:29 34.207879 -117.617025 43 27164ft 358kts
19-Mar-20 14:30 34.274026 -117.527184 43 27155ft 358kts
19-Mar-20 14:31 34.339833 -117.437576 43 27132ft 359kts
19-Mar-20 14:32 34.405834 -117.347477 44 27099ft 359kts
19-Mar-20 14:33 34.470447 -117.259036 44 27109ft 357kts
19-Mar-20 14:34 34.538653 -117.165441 44 27103ft 357kts
19-Mar-20 14:35 34.605688 -117.073216 44 27089ft 357kts
19-Mar-20 14:36 34.672681 -116.980792 44 27087ft 356kts
19-Mar-20 14:37 34.739014 -116.889042 44 27084ft 355kts
19-Mar-20 14:38 34.804995 -116.797528 44 27084ft 354kts
19-Mar-20 14:39 34.870860 -116.705940 44 27085ft 353kts
19-Mar-20 14:40 34.937227 -116.613432 45 27086ft 354kts
19-Mar-20 14:41 34.992558 -116.510601 59 27088ft 359kts
19-Mar-20 14:42 35.040298 -116.403039 60 27089ft 361kts
19-Mar-20 14:43 35.087882 -116.295516 60 27081ft 361kts
19-Mar-20 14:44 35.135298 -116.188048 60 27079ft 360kts
19-Mar-20 14:45 35.182633 -116.080445 60 27080ft 360kts
19-Mar-20 14:46 35.230022 -115.972355 60 27081ft 360kts
19-Mar-20 14:47 35.277215 -115.864373 60 27083ft 360kts
19-Mar-20 14:48 35.329754 -115.761304 44 27093ft 357kts
19-Mar-20 14:49 35.397135 -115.671848 44 27093ft 357kts
19-Mar-20 14:50 35.462445 -115.584522 43 26624ft 325kts
19-Mar-20 14:51 35.523632 -115.502630 44 24182ft 316kts
19-Mar-20 14:52 35.561463 -115.411006 114 21302ft 307kts
19-Mar-20 14:53 35.493960 -115.384672 190 18232ft 259kts
19-Mar-20 14:54 35.420943 -115.395723 191 15132ft 253kts
19-Mar-20 14:55 35.349973 -115.407699 191 12036ft 248kts
19-Mar-20 14:56 35.282845 -115.419966 191 10014ft 208kts
19-Mar-20 14:57 35.232026 -115.428539 195 10006ft 158kts
19-Mar-20 14:58 35.244623 -115.458150 8 10010ft 175kts
19-Mar-20 14:59 35.296224 -115.453629 345 10063ft 229kts
19-Mar-20 15:00 35.365767 -115.474530 339 10014ft 270kts
19-Mar-20 15:01 35.439080 -115.499761 339 10008ft 273kts
19-Mar-20 15:02 35.512745 -115.513836 25 9984ft 283kts
19-Mar-20 15:03 35.568454 -115.442496 47 10010ft 286kts
19-Mar-20 15:04 35.623025 -115.369074 47 10010ft 287kts
19-Mar-20 15:05 35.677513 -115.295660 47 10007ft 287kts
19-Mar-20 15:06 35.731413 -115.222877 47 10007ft 286kts
19-Mar-20 15:08 35.786019 -115.152931 26 8997ft 272kts
19-Mar-20 15:09 35.853880 -115.132115 11 7013ft 238kts
19-Mar-20 15:10 35.904742 -115.117304 11 6984ft 155kts
19-Mar-20 15:11 35.946740 -115.111928 1 7061ft 191kts
19-Mar-20 15:12 35.999214 -115.118345 334 6658ft 212kts
19-Mar-20 15:13 36.045281 -115.141539 343 6004ft 194kts
19-Mar-20 15:14 36.087961 -115.134532 16 4674ft 179kts
19-Mar-20 15:15 36.127779 -115.120458 303 3151ft 135kts
19-Mar-20 15:16 36.115244 -115.143842 224 2776ft 123kts
19-Mar-20 15:17 36.093380 -115.160057 203 2106ft 28kts
19-Mar-20 15:18 36.087643 -115.163346 203 2130ft 24kts

Navigation Log

Ident Type
Flight plan parsing failed, navigation log unavailable